sensor_id;sensor_type;location;lat;lon;timestamp;P1;durP1;ratioP1;P2;durP2;ratioP2
56503;SDS011;48812;51.606;-0.114;2023-04-03T00:02:10;3.75;;;1.60;;
56503;SDS011;48812;51.606;-0.114;2023-04-03T00:04:46;3.90;;;1.52;;
56503;SDS011;48812;51.606;-0.114;2023-04-03T00:07:19;3.08;;;1.63;;
56503;SDS011;48812;51.606;-0.114;2023-04-03T00:09:53;3.63;;;1.58;;
56503;SDS011;48812;51.606;-0.114;2023-04-03T00:12:26;5.18;;;1.67;;
56503;SDS011;48812;51.606;-0.114;2023-04-03T00:14:59;3.15;;;1.65;;
56503;SDS011;48812;51.606;-0.114;2023-04-03T00:23:58;2.88;;;1.40;;
56503;SDS011;48812;51.606;-0.114;2023-04-03T00:35:39;3.72;;;1.80;;
56503;SDS011;48812;51.606;-0.114;2023-04-03T00:38:13;3.58;;;1.83;;
56503;SDS011;48812;51.606;-0.114;2023-04-03T00:40:48;3.50;;;2.05;;
56503;SDS011;48812;51.606;-0.114;2023-04-03T00:43:23;4.00;;;1.80;;
56503;SDS011;48812;51.606;-0.114;2023-04-03T00:45:59;4.35;;;1.75;;
56503;SDS011;48812;51.606;-0.114;2023-04-03T00:48:34;6.78;;;1.90;;
56503;SDS011;48812;51.606;-0.114;2023-04-03T00:51:13;4.88;;;1.98;;
56503;SDS011;48812;51.606;-0.114;2023-04-03T00:53:52;5.10;;;2.00;;
56503;SDS011;48812;51.606;-0.114;2023-04-03T00:56:29;4.20;;;2.00;;
56503;SDS011;48812;51.606;-0.114;2023-04-03T00:59:10;6.72;;;2.00;;
56503;SDS011;48812;51.606;-0.114;2023-04-03T01:01:47;3.38;;;1.63;;
56503;SDS011;48812;51.606;-0.114;2023-04-03T01:06:56;4.88;;;2.00;;
56503;SDS011;48812;51.606;-0.114;2023-04-03T01:09:33;4.80;;;1.85;;
56503;SDS011;48812;51.606;-0.114;2023-04-03T01:12:17;4.88;;;1.95;;
56503;SDS011;48812;51.606;-0.114;2023-04-03T01:14:53;6.63;;;2.05;;
56503;SDS011;48812;51.606;-0.114;2023-04-03T01:17:29;4.70;;;1.95;;
56503;SDS011;48812;51.606;-0.114;2023-04-03T01:26:14;5.00;;;1.90;;
56503;SDS011;48812;51.606;-0.114;2023-04-03T01:28:47;3.65;;;1.80;;
56503;SDS011;48812;51.606;-0.114;2023-04-03T01:34:25;6.95;;;2.20;;
56503;SDS011;48812;51.606;-0.114;2023-04-03T01:36:59;3.88;;;1.80;;
56503;SDS011;48812;51.606;-0.114;2023-04-03T01:42:05;4.25;;;1.50;;
56503;SDS011;48812;51.606;-0.114;2023-04-03T01:44:43;3.85;;;1.73;;
56503;SDS011;48812;51.606;-0.114;2023-04-03T02:23:28;3.78;;;1.40;;
56503;SDS011;48812;51.606;-0.114;2023-04-03T02:26:08;5.25;;;1.52;;
56503;SDS011;48812;51.606;-0.114;2023-04-03T02:28:54;4.38;;;1.60;;
56503;SDS011;48812;51.606;-0.114;2023-04-03T02:34:35;2.55;;;1.40;;
56503;SDS011;48812;51.606;-0.114;2023-04-03T02:40:12;4.32;;;1.40;;
56503;SDS011;48812;51.606;-0.114;2023-04-03T02:42:45;4.13;;;1.50;;
56503;SDS011;48812;51.606;-0.114;2023-04-03T02:48:35;4.05;;;1.30;;
56503;SDS011;48812;51.606;-0.114;2023-04-03T02:54:36;4.00;;;1.30;;
56503;SDS011;48812;51.606;-0.114;2023-04-03T03:12:44;3.47;;;1.27;;
56503;SDS011;48812;51.606;-0.114;2023-04-03T03:21:33;2.53;;;1.17;;
56503;SDS011;48812;51.606;-0.114;2023-04-03T03:33:52;2.40;;;1.20;;
56503;SDS011;48812;51.606;-0.114;2023-04-03T03:55:25;5.10;;;1.48;;
56503;SDS011;48812;51.606;-0.114;2023-04-03T03:58:01;2.83;;;1.23;;
56503;SDS011;48812;51.606;-0.114;2023-04-03T04:00:42;3.97;;;1.23;;
56503;SDS011;48812;51.606;-0.114;2023-04-03T04:03:16;2.53;;;1.17;;
56503;SDS011;48812;51.606;-0.114;2023-04-03T04:05:51;3.38;;;1.23;;
56503;SDS011;48812;51.606;-0.114;2023-04-03T04:12:22;2.30;;;1.00;;
56503;SDS011;48812;51.606;-0.114;2023-04-03T04:14:58;1.90;;;1.20;;
56503;SDS011;48812;51.606;-0.114;2023-04-03T04:17:35;2.90;;;1.20;;
56503;SDS011;48812;51.606;-0.114;2023-04-03T04:20:11;3.55;;;1.27;;
56503;SDS011;48812;51.606;-0.114;2023-04-03T04:22:45;2.50;;;1.23;;
56503;SDS011;48812;51.606;-0.114;2023-04-03T04:25:18;3.20;;;1.23;;
56503;SDS011;48812;51.606;-0.114;2023-04-03T04:30:24;3.13;;;1.00;;
56503;SDS011;48812;51.606;-0.114;2023-04-03T04:33:00;3.85;;;1.30;;
56503;SDS011;48812;51.606;-0.114;2023-04-03T04:35:35;4.82;;;1.63;;
56503;SDS011;48812;51.606;-0.114;2023-04-03T04:40:42;4.20;;;1.30;;
56503;SDS011;48812;51.606;-0.114;2023-04-03T04:43:15;2.70;;;1.20;;
56503;SDS011;48812;51.606;-0.114;2023-04-03T04:45:59;2.58;;;1.05;;
56503;SDS011;48812;51.606;-0.114;2023-04-03T04:48:34;3.40;;;1.10;;
56503;SDS011;48812;51.606;-0.114;2023-04-03T04:51:08;2.50;;;1.17;;
56503;SDS011;48812;51.606;-0.114;2023-04-03T04:53:43;2.35;;;1.25;;
56503;SDS011;48812;51.606;-0.114;2023-04-03T04:56:18;3.63;;;1.25;;
56503;SDS011;48812;51.606;-0.114;2023-04-03T04:58:51;3.05;;;1.35;;
56503;SDS011;48812;51.606;-0.114;2023-04-03T05:01:25;2.67;;;1.13;;
56503;SDS011;48812;51.606;-0.114;2023-04-03T05:04:04;2.22;;;1.13;;
56503;SDS011;48812;51.606;-0.114;2023-04-03T05:06:37;6.00;;;1.38;;
56503;SDS011;48812;51.606;-0.114;2023-04-03T05:09:13;2.42;;;1.20;;
56503;SDS011;48812;51.606;-0.114;2023-04-03T05:11:48;2.78;;;1.27;;
56503;SDS011;48812;51.606;-0.114;2023-04-03T05:14:23;2.13;;;1.00;;
56503;SDS011;48812;51.606;-0.114;2023-04-03T05:22:51;3.75;;;1.40;;
56503;SDS011;48812;51.606;-0.114;2023-04-03T05:25:28;3.15;;;1.27;;
56503;SDS011;48812;51.606;-0.114;2023-04-03T05:28:29;2.33;;;1.17;;
56503;SDS011;48812;51.606;-0.114;2023-04-03T05:31:02;2.47;;;1.33;;
56503;SDS011;48812;51.606;-0.114;2023-04-03T05:33:39;3.58;;;1.27;;
56503;SDS011;48812;51.606;-0.114;2023-04-03T05:36:18;2.80;;;1.40;;
56503;SDS011;48812;51.606;-0.114;2023-04-03T05:38:58;4.75;;;1.40;;
56503;SDS011;48812;51.606;-0.114;2023-04-03T05:41:31;2.97;;;1.40;;
56503;SDS011;48812;51.606;-0.114;2023-04-03T05:44:03;3.65;;;1.33;;
56503;SDS011;48812;51.606;-0.114;2023-04-03T05:49:31;3.85;;;1.20;;
56503;SDS011;48812;51.606;-0.114;2023-04-03T05:52:04;4.32;;;1.25;;
56503;SDS011;48812;51.606;-0.114;2023-04-03T05:54:37;7.55;;;1.40;;
56503;SDS011;48812;51.606;-0.114;2023-04-03T05:57:18;4.18;;;1.40;;
56503;SDS011;48812;51.606;-0.114;2023-04-03T05:59:55;3.85;;;1.10;;
56503;SDS011;48812;51.606;-0.114;2023-04-03T06:02:28;4.78;;;1.50;;
56503;SDS011;48812;51.606;-0.114;2023-04-03T06:05:01;3.60;;;1.48;;
56503;SDS011;48812;51.606;-0.114;2023-04-03T06:07:34;3.28;;;1.20;;
56503;SDS011;48812;51.606;-0.114;2023-04-03T06:10:07;4.10;;;1.27;;
56503;SDS011;48812;51.606;-0.114;2023-04-03T06:12:42;3.40;;;1.20;;
56503;SDS011;48812;51.606;-0.114;2023-04-03T06:15:15;4.35;;;1.20;;
56503;SDS011;48812;51.606;-0.114;2023-04-03T06:17:48;3.33;;;1.10;;
56503;SDS011;48812;51.606;-0.114;2023-04-03T06:20:22;2.92;;;1.30;;
56503;SDS011;48812;51.606;-0.114;2023-04-03T06:22:54;5.68;;;1.52;;
56503;SDS011;48812;51.606;-0.114;2023-04-03T06:25:27;4.10;;;1.15;;
56503;SDS011;48812;51.606;-0.114;2023-04-03T06:27:59;6.03;;;1.83;;
56503;SDS011;48812;51.606;-0.114;2023-04-03T06:30:32;3.70;;;1.55;;
56503;SDS011;48812;51.606;-0.114;2023-04-03T06:33:05;7.90;;;1.50;;
56503;SDS011;48812;51.606;-0.114;2023-04-03T06:35:37;5.15;;;1.20;;
56503;SDS011;48812;51.606;-0.114;2023-04-03T06:38:10;5.15;;;1.30;;
56503;SDS011;48812;51.606;-0.114;2023-04-03T06:40:43;3.70;;;1.33;;
56503;SDS011;48812;51.606;-0.114;2023-04-03T06:43:15;1.88;;;1.10;;
56503;SDS011;48812;51.606;-0.114;2023-04-03T06:45:48;6.45;;;1.33;;
56503;SDS011;48812;51.606;-0.114;2023-04-03T06:48:20;4.03;;;1.50;;
56503;SDS011;48812;51.606;-0.114;2023-04-03T06:50:53;4.83;;;1.30;;
56503;SDS011;48812;51.606;-0.114;2023-04-03T06:53:27;4.30;;;1.55;;
56503;SDS011;48812;51.606;-0.114;2023-04-03T06:55:59;3.92;;;1.30;;
56503;SDS011;48812;51.606;-0.114;2023-04-03T06:58:32;3.85;;;1.60;;
56503;SDS011;48812;51.606;-0.114;2023-04-03T07:01:04;7.22;;;1.30;;
56503;SDS011;48812;51.606;-0.114;2023-04-03T07:03:37;6.78;;;1.60;;
56503;SDS011;48812;51.606;-0.114;2023-04-03T07:08:43;3.78;;;1.23;;
56503;SDS011;48812;51.606;-0.114;2023-04-03T07:11:19;25.40;;;1.63;;
56503;SDS011;48812;51.606;-0.114;2023-04-03T07:13:52;12.98;;;1.88;;
56503;SDS011;48812;51.606;-0.114;2023-04-03T07:16:25;15.15;;;1.83;;
56503;SDS011;48812;51.606;-0.114;2023-04-03T07:18:57;6.97;;;1.35;;
56503;SDS011;48812;51.606;-0.114;2023-04-03T07:21:30;7.03;;;1.80;;
56503;SDS011;48812;51.606;-0.114;2023-04-03T07:24:03;10.18;;;1.52;;
56503;SDS011;48812;51.606;-0.114;2023-04-03T07:26:37;6.57;;;1.55;;
56503;SDS011;48812;51.606;-0.114;2023-04-03T07:29:09;11.85;;;1.63;;
56503;SDS011;48812;51.606;-0.114;2023-04-03T07:31:42;6.60;;;1.20;;
56503;SDS011;48812;51.606;-0.114;2023-04-03T07:34:16;7.78;;;1.30;;
56503;SDS011;48812;51.606;-0.114;2023-04-03T07:36:49;5.13;;;1.55;;
56503;SDS011;48812;51.606;-0.114;2023-04-03T07:39:21;9.13;;;1.85;;
56503;SDS011;48812;51.606;-0.114;2023-04-03T07:41:54;5.50;;;1.30;;
56503;SDS011;48812;51.606;-0.114;2023-04-03T07:44:29;8.15;;;2.00;;
56503;SDS011;48812;51.606;-0.114;2023-04-03T07:47:02;7.55;;;1.40;;
56503;SDS011;48812;51.606;-0.114;2023-04-03T07:49:35;7.27;;;1.47;;
56503;SDS011;48812;51.606;-0.114;2023-04-03T07:52:12;4.45;;;1.42;;
56503;SDS011;48812;51.606;-0.114;2023-04-03T07:54:47;4.10;;;1.52;;
56503;SDS011;48812;51.606;-0.114;2023-04-03T07:57:19;6.05;;;1.40;;
56503;SDS011;48812;51.606;-0.114;2023-04-03T07:59:52;6.97;;;1.25;;
56503;SDS011;48812;51.606;-0.114;2023-04-03T08:02:25;3.85;;;1.35;;
56503;SDS011;48812;51.606;-0.114;2023-04-03T08:04:58;4.28;;;1.45;;
56503;SDS011;48812;51.606;-0.114;2023-04-03T08:07:31;3.83;;;1.30;;
56503;SDS011;48812;51.606;-0.114;2023-04-03T08:10:04;2.75;;;1.42;;
56503;SDS011;48812;51.606;-0.114;2023-04-03T08:12:37;7.15;;;1.45;;
56503;SDS011;48812;51.606;-0.114;2023-04-03T08:15:10;3.47;;;1.70;;
56503;SDS011;48812;51.606;-0.114;2023-04-03T08:17:43;3.80;;;1.27;;
56503;SDS011;48812;51.606;-0.114;2023-04-03T08:20:16;4.03;;;1.40;;
56503;SDS011;48812;51.606;-0.114;2023-04-03T08:22:50;8.30;;;1.65;;
56503;SDS011;48812;51.606;-0.114;2023-04-03T08:25:22;6.22;;;1.40;;
56503;SDS011;48812;51.606;-0.114;2023-04-03T08:27:55;3.78;;;1.27;;
56503;SDS011;48812;51.606;-0.114;2023-04-03T08:30:28;3.80;;;1.42;;
56503;SDS011;48812;51.606;-0.114;2023-04-03T08:33:00;5.87;;;1.23;;
56503;SDS011;48812;51.606;-0.114;2023-04-03T08:35:37;2.97;;;1.20;;
56503;SDS011;48812;51.606;-0.114;2023-04-03T08:38:13;1.83;;;0.98;;
56503;SDS011;48812;51.606;-0.114;2023-04-03T08:40:46;3.85;;;1.27;;
56503;SDS011;48812;51.606;-0.114;2023-04-03T08:43:30;3.27;;;1.10;;
56503;SDS011;48812;51.606;-0.114;2023-04-03T08:46:30;6.68;;;1.20;;
56503;SDS011;48812;51.606;-0.114;2023-04-03T08:49:16;3.97;;;1.70;;
56503;SDS011;48812;51.606;-0.114;2023-04-03T08:51:56;3.50;;;1.40;;
56503;SDS011;48812;51.606;-0.114;2023-04-03T08:54:33;4.15;;;1.15;;
56503;SDS011;48812;51.606;-0.114;2023-04-03T08:57:09;3.08;;;1.38;;
56503;SDS011;48812;51.606;-0.114;2023-04-03T08:59:44;3.38;;;1.45;;
56503;SDS011;48812;51.606;-0.114;2023-04-03T09:05:10;2.65;;;1.23;;
56503;SDS011;48812;51.606;-0.114;2023-04-03T09:07:47;4.18;;;1.20;;
56503;SDS011;48812;51.606;-0.114;2023-04-03T09:10:25;4.28;;;1.10;;
56503;SDS011;48812;51.606;-0.114;2023-04-03T09:13:05;3.40;;;1.40;;
56503;SDS011;48812;51.606;-0.114;2023-04-03T09:15:50;3.60;;;1.00;;
56503;SDS011;48812;51.606;-0.114;2023-04-03T09:18:24;3.28;;;1.33;;
56503;SDS011;48812;51.606;-0.114;2023-04-03T09:21:23;2.40;;;1.20;;
56503;SDS011;48812;51.606;-0.114;2023-04-03T09:24:04;3.30;;;1.05;;
56503;SDS011;48812;51.606;-0.114;2023-04-03T09:26:56;3.55;;;1.15;;
56503;SDS011;48812;51.606;-0.114;2023-04-03T09:29:39;6.22;;;1.10;;
56503;SDS011;48812;51.606;-0.114;2023-04-03T09:32:28;2.55;;;1.05;;
56503;SDS011;48812;51.606;-0.114;2023-04-03T09:35:13;2.85;;;1.33;;
56503;SDS011;48812;51.606;-0.114;2023-04-03T09:40:44;3.30;;;1.10;;
56503;SDS011;48812;51.606;-0.114;2023-04-03T09:43:28;3.72;;;1.20;;
56503;SDS011;48812;51.606;-0.114;2023-04-03T09:49:09;3.92;;;1.33;;
56503;SDS011;48812;51.606;-0.114;2023-04-03T09:51:45;5.50;;;1.10;;
56503;SDS011;48812;51.606;-0.114;2023-04-03T09:54:40;3.05;;;1.25;;
56503;SDS011;48812;51.606;-0.114;2023-04-03T09:57:13;5.78;;;1.60;;
56503;SDS011;48812;51.606;-0.114;2023-04-03T09:59:46;2.78;;;0.90;;
56503;SDS011;48812;51.606;-0.114;2023-04-03T10:02:36;4.35;;;1.30;;
56503;SDS011;48812;51.606;-0.114;2023-04-03T10:05:31;4.15;;;1.30;;
56503;SDS011;48812;51.606;-0.114;2023-04-03T10:10:48;3.28;;;1.00;;
56503;SDS011;48812;51.606;-0.114;2023-04-03T10:13:48;2.22;;;1.13;;
56503;SDS011;48812;51.606;-0.114;2023-04-03T10:17:05;3.95;;;1.30;;
56503;SDS011;48812;51.606;-0.114;2023-04-03T10:19:39;2.83;;;1.23;;
56503;SDS011;48812;51.606;-0.114;2023-04-03T10:22:26;3.28;;;1.17;;
56503;SDS011;48812;51.606;-0.114;2023-04-03T10:27:56;3.40;;;1.13;;
56503;SDS011;48812;51.606;-0.114;2023-04-03T10:30:47;3.28;;;1.30;;
56503;SDS011;48812;51.606;-0.114;2023-04-03T10:42:41;2.38;;;1.00;;
56503;SDS011;48812;51.606;-0.114;2023-04-03T10:45:24;4.00;;;1.20;;
56503;SDS011;48812;51.606;-0.114;2023-04-03T10:48:11;2.70;;;1.20;;
56503;SDS011;48812;51.606;-0.114;2023-04-03T10:50:58;2.08;;;1.10;;
56503;SDS011;48812;51.606;-0.114;2023-04-03T10:53:41;1.80;;;1.00;;
56503;SDS011;48812;51.606;-0.114;2023-04-03T10:56:30;3.63;;;1.00;;
56503;SDS011;48812;51.606;-0.114;2023-04-03T10:59:28;2.63;;;1.20;;
56503;SDS011;48812;51.606;-0.114;2023-04-03T11:05:13;3.37;;;1.20;;
56503;SDS011;48812;51.606;-0.114;2023-04-03T11:08:11;3.03;;;1.20;;
56503;SDS011;48812;51.606;-0.114;2023-04-03T11:11:08;2.03;;;0.95;;
56503;SDS011;48812;51.606;-0.114;2023-04-03T11:13:50;2.58;;;1.20;;
56503;SDS011;48812;51.606;-0.114;2023-04-03T11:16:47;3.28;;;1.10;;
56503;SDS011;48812;51.606;-0.114;2023-04-03T11:19:37;2.50;;;0.95;;
56503;SDS011;48812;51.606;-0.114;2023-04-03T11:22:29;3.50;;;1.05;;
56503;SDS011;48812;51.606;-0.114;2023-04-03T11:27:43;2.45;;;1.15;;
56503;SDS011;48812;51.606;-0.114;2023-04-03T11:30:40;3.83;;;1.15;;
56503;SDS011;48812;51.606;-0.114;2023-04-03T11:36:23;2.33;;;1.00;;
56503;SDS011;48812;51.606;-0.114;2023-04-03T11:39:25;2.65;;;1.13;;
56503;SDS011;48812;51.606;-0.114;2023-04-03T11:53:52;3.90;;;0.95;;
56503;SDS011;48812;51.606;-0.114;2023-04-03T12:01:55;1.80;;;1.02;;
56503;SDS011;48812;51.606;-0.114;2023-04-03T12:04:30;3.95;;;1.23;;
56503;SDS011;48812;51.606;-0.114;2023-04-03T12:07:12;2.65;;;1.20;;
56503;SDS011;48812;51.606;-0.114;2023-04-03T12:15:21;1.95;;;1.13;;
56503;SDS011;48812;51.606;-0.114;2023-04-03T12:17:56;1.42;;;0.90;;
56503;SDS011;48812;51.606;-0.114;2023-04-03T12:23:24;2.30;;;1.05;;
56503;SDS011;48812;51.606;-0.114;2023-04-03T12:25:59;2.33;;;0.90;;
56503;SDS011;48812;51.606;-0.114;2023-04-03T12:28:37;2.90;;;1.00;;
56503;SDS011;48812;51.606;-0.114;2023-04-03T12:31:13;1.67;;;0.80;;
56503;SDS011;48812;51.606;-0.114;2023-04-03T12:33:51;2.10;;;1.00;;
56503;SDS011;48812;51.606;-0.114;2023-04-03T12:45:17;2.67;;;0.90;;
56503;SDS011;48812;51.606;-0.114;2023-04-03T12:47:53;2.17;;;0.88;;
56503;SDS011;48812;51.606;-0.114;2023-04-03T12:50:30;2.38;;;1.25;;
56503;SDS011;48812;51.606;-0.114;2023-04-03T12:53:06;1.73;;;0.80;;
56503;SDS011;48812;51.606;-0.114;2023-04-03T12:55:44;2.50;;;1.05;;
56503;SDS011;48812;51.606;-0.114;2023-04-03T12:58:27;1.88;;;0.90;;
56503;SDS011;48812;51.606;-0.114;2023-04-03T13:01:01;2.47;;;0.95;;
56503;SDS011;48812;51.606;-0.114;2023-04-03T13:03:47;1.20;;;0.80;;
56503;SDS011;48812;51.606;-0.114;2023-04-03T13:06:26;2.20;;;1.02;;
56503;SDS011;48812;51.606;-0.114;2023-04-03T13:09:02;1.40;;;0.80;;
56503;SDS011;48812;51.606;-0.114;2023-04-03T13:11:37;1.75;;;0.88;;
56503;SDS011;48812;51.606;-0.114;2023-04-03T13:14:19;1.85;;;0.98;;
56503;SDS011;48812;51.606;-0.114;2023-04-03T13:17:13;2.22;;;0.93;;
56503;SDS011;48812;51.606;-0.114;2023-04-03T13:19:47;2.88;;;1.17;;
56503;SDS011;48812;51.606;-0.114;2023-04-03T13:24:52;1.92;;;0.80;;
56503;SDS011;48812;51.606;-0.114;2023-04-03T13:27:27;1.52;;;0.88;;
56503;SDS011;48812;51.606;-0.114;2023-04-03T13:30:02;1.13;;;0.88;;
56503;SDS011;48812;51.606;-0.114;2023-04-03T13:32:36;1.42;;;0.77;;
56503;SDS011;48812;51.606;-0.114;2023-04-03T13:35:54;1.83;;;0.77;;
56503;SDS011;48812;51.606;-0.114;2023-04-03T13:40:53;1.35;;;0.75;;
56503;SDS011;48812;51.606;-0.114;2023-04-03T13:43:29;3.03;;;0.95;;
56503;SDS011;48812;51.606;-0.114;2023-04-03T13:48:44;1.90;;;1.00;;
56503;SDS011;48812;51.606;-0.114;2023-04-03T13:51:20;1.27;;;0.77;;
56503;SDS011;48812;51.606;-0.114;2023-04-03T13:53:56;1.30;;;0.80;;
56503;SDS011;48812;51.606;-0.114;2023-04-03T13:56:34;1.83;;;0.90;;
56503;SDS011;48812;51.606;-0.114;2023-04-03T14:04:25;3.27;;;0.97;;
56503;SDS011;48812;51.606;-0.114;2023-04-03T14:07:18;2.60;;;0.80;;
56503;SDS011;48812;51.606;-0.114;2023-04-03T14:09:53;0.93;;;0.63;;
56503;SDS011;48812;51.606;-0.114;2023-04-03T14:15:07;1.20;;;0.77;;
56503;SDS011;48812;51.606;-0.114;2023-04-03T14:17:50;1.45;;;0.90;;
56503;SDS011;48812;51.606;-0.114;2023-04-03T14:20:24;1.05;;;0.88;;
56503;SDS011;48812;51.606;-0.114;2023-04-03T14:22:58;2.47;;;0.80;;
56503;SDS011;48812;51.606;-0.114;2023-04-03T14:25:31;1.25;;;0.60;;
56503;SDS011;48812;51.606;-0.114;2023-04-03T14:28:07;1.63;;;0.90;;
56503;SDS011;48812;51.606;-0.114;2023-04-03T14:30:48;1.27;;;0.73;;
56503;SDS011;48812;51.606;-0.114;2023-04-03T14:33:22;1.50;;;0.75;;
56503;SDS011;48812;51.606;-0.114;2023-04-03T14:35:55;1.13;;;0.80;;
56503;SDS011;48812;51.606;-0.114;2023-04-03T14:38:30;2.22;;;0.70;;
56503;SDS011;48812;51.606;-0.114;2023-04-03T14:41:03;1.33;;;0.80;;
56503;SDS011;48812;51.606;-0.114;2023-04-03T14:43:47;1.10;;;0.80;;
56503;SDS011;48812;51.606;-0.114;2023-04-03T14:46:35;1.23;;;0.70;;
56503;SDS011;48812;51.606;-0.114;2023-04-03T14:49:27;1.33;;;0.82;;
56503;SDS011;48812;51.606;-0.114;2023-04-03T14:52:01;1.30;;;0.77;;
56503;SDS011;48812;51.606;-0.114;2023-04-03T14:54:33;1.05;;;0.80;;
56503;SDS011;48812;51.606;-0.114;2023-04-03T14:57:08;1.30;;;0.98;;
56503;SDS011;48812;51.606;-0.114;2023-04-03T14:59:44;1.45;;;0.93;;
56503;SDS011;48812;51.606;-0.114;2023-04-03T15:05:00;1.65;;;1.00;;
56503;SDS011;48812;51.606;-0.114;2023-04-03T15:07:37;2.95;;;1.30;;
56503;SDS011;48812;51.606;-0.114;2023-04-03T15:10:19;1.10;;;0.90;;
56503;SDS011;48812;51.606;-0.114;2023-04-03T15:12:54;2.13;;;1.00;;
56503;SDS011;48812;51.606;-0.114;2023-04-03T15:15:28;1.15;;;0.90;;
56503;SDS011;48812;51.606;-0.114;2023-04-03T15:18:01;1.90;;;0.98;;
56503;SDS011;48812;51.606;-0.114;2023-04-03T15:20:34;1.20;;;0.98;;
56503;SDS011;48812;51.606;-0.114;2023-04-03T15:23:08;2.28;;;1.10;;
56503;SDS011;48812;51.606;-0.114;2023-04-03T15:25:42;1.75;;;0.90;;
56503;SDS011;48812;51.606;-0.114;2023-04-03T15:28:30;1.42;;;1.02;;
56503;SDS011;48812;51.606;-0.114;2023-04-03T15:31:05;2.92;;;1.30;;
56503;SDS011;48812;51.606;-0.114;2023-04-03T15:33:39;1.75;;;0.95;;
56503;SDS011;48812;51.606;-0.114;2023-04-03T15:36:12;2.20;;;1.02;;
56503;SDS011;48812;51.606;-0.114;2023-04-03T15:39:04;1.73;;;0.98;;
56503;SDS011;48812;51.606;-0.114;2023-04-03T15:41:37;1.17;;;1.00;;
56503;SDS011;48812;51.606;-0.114;2023-04-03T15:44:09;1.73;;;1.00;;
56503;SDS011;48812;51.606;-0.114;2023-04-03T15:46:41;1.85;;;1.00;;
56503;SDS011;48812;51.606;-0.114;2023-04-03T15:49:14;1.50;;;0.90;;
56503;SDS011;48812;51.606;-0.114;2023-04-03T15:51:47;2.55;;;0.93;;
56503;SDS011;48812;51.606;-0.114;2023-04-03T15:54:19;2.22;;;1.10;;
56503;SDS011;48812;51.606;-0.114;2023-04-03T15:56:52;1.55;;;1.08;;
56503;SDS011;48812;51.606;-0.114;2023-04-03T15:59:25;1.92;;;1.00;;
56503;SDS011;48812;51.606;-0.114;2023-04-03T16:01:58;1.70;;;1.17;;
56503;SDS011;48812;51.606;-0.114;2023-04-03T16:04:33;2.65;;;1.30;;
56503;SDS011;48812;51.606;-0.114;2023-04-03T16:07:06;1.52;;;1.10;;
56503;SDS011;48812;51.606;-0.114;2023-04-03T16:09:39;1.73;;;0.93;;
56503;SDS011;48812;51.606;-0.114;2023-04-03T16:12:12;2.20;;;1.00;;
56503;SDS011;48812;51.606;-0.114;2023-04-03T16:14:45;2.13;;;1.05;;
56503;SDS011;48812;51.606;-0.114;2023-04-03T16:17:19;1.48;;;1.00;;
56503;SDS011;48812;51.606;-0.114;2023-04-03T16:19:51;1.58;;;1.10;;
56503;SDS011;48812;51.606;-0.114;2023-04-03T16:22:24;1.98;;;1.10;;
56503;SDS011;48812;51.606;-0.114;2023-04-03T16:24:58;1.13;;;1.00;;
56503;SDS011;48812;51.606;-0.114;2023-04-03T16:27:30;1.15;;;0.95;;
56503;SDS011;48812;51.606;-0.114;2023-04-03T16:30:02;1.35;;;1.10;;
56503;SDS011;48812;51.606;-0.114;2023-04-03T16:32:36;1.30;;;1.00;;
56503;SDS011;48812;51.606;-0.114;2023-04-03T16:35:10;1.05;;;0.88;;
56503;SDS011;48812;51.606;-0.114;2023-04-03T16:37:43;2.50;;;1.17;;
56503;SDS011;48812;51.606;-0.114;2023-04-03T16:40:15;1.30;;;1.00;;
56503;SDS011;48812;51.606;-0.114;2023-04-03T16:42:48;2.53;;;1.33;;
56503;SDS011;48812;51.606;-0.114;2023-04-03T16:45:21;1.48;;;1.02;;
56503;SDS011;48812;51.606;-0.114;2023-04-03T16:47:54;1.60;;;1.00;;
56503;SDS011;48812;51.606;-0.114;2023-04-03T16:50:26;1.77;;;0.95;;
56503;SDS011;48812;51.606;-0.114;2023-04-03T16:52:59;2.70;;;1.17;;
56503;SDS011;48812;51.606;-0.114;2023-04-03T16:55:31;2.13;;;1.20;;
56503;SDS011;48812;51.606;-0.114;2023-04-03T16:58:04;1.50;;;1.10;;
56503;SDS011;48812;51.606;-0.114;2023-04-03T17:00:36;2.30;;;0.90;;
56503;SDS011;48812;51.606;-0.114;2023-04-03T17:03:10;3.83;;;1.20;;
56503;SDS011;48812;51.606;-0.114;2023-04-03T17:05:46;1.23;;;0.98;;
56503;SDS011;48812;51.606;-0.114;2023-04-03T17:08:19;1.05;;;0.95;;
56503;SDS011;48812;51.606;-0.114;2023-04-03T17:10:51;1.60;;;1.20;;
56503;SDS011;48812;51.606;-0.114;2023-04-03T17:13:26;1.95;;;1.05;;
56503;SDS011;48812;51.606;-0.114;2023-04-03T17:16:03;2.55;;;1.10;;
56503;SDS011;48812;51.606;-0.114;2023-04-03T17:18:39;1.25;;;1.00;;
56503;SDS011;48812;51.606;-0.114;2023-04-03T17:23:46;1.92;;;1.08;;
56503;SDS011;48812;51.606;-0.114;2023-04-03T17:26:21;2.50;;;1.00;;
56503;SDS011;48812;51.606;-0.114;2023-04-03T17:28:54;2.28;;;1.38;;
56503;SDS011;48812;51.606;-0.114;2023-04-03T17:31:26;2.35;;;1.17;;
56503;SDS011;48812;51.606;-0.114;2023-04-03T17:34:00;1.42;;;1.10;;
56503;SDS011;48812;51.606;-0.114;2023-04-03T17:36:33;2.10;;;1.00;;
56503;SDS011;48812;51.606;-0.114;2023-04-03T17:39:06;1.58;;;1.10;;
56503;SDS011;48812;51.606;-0.114;2023-04-03T17:41:38;2.03;;;1.17;;
56503;SDS011;48812;51.606;-0.114;2023-04-03T17:44:11;2.13;;;0.93;;
56503;SDS011;48812;51.606;-0.114;2023-04-03T17:46:44;2.50;;;1.30;;
56503;SDS011;48812;51.606;-0.114;2023-04-03T17:49:16;2.13;;;1.10;;
56503;SDS011;48812;51.606;-0.114;2023-04-03T17:51:51;1.92;;;1.20;;
56503;SDS011;48812;51.606;-0.114;2023-04-03T17:56:56;2.22;;;0.98;;
56503;SDS011;48812;51.606;-0.114;2023-04-03T17:59:29;3.42;;;1.42;;
56503;SDS011;48812;51.606;-0.114;2023-04-03T18:02:01;1.27;;;0.90;;
56503;SDS011;48812;51.606;-0.114;2023-04-03T18:04:34;1.67;;;1.03;;
56503;SDS011;48812;51.606;-0.114;2023-04-03T18:07:07;1.77;;;1.20;;
